Time;durP1;ratioP1;P1;durP2;ratioP2;P2;SDS_P1;SDS_P2;PMS_P1;PMS_P2;Temp;Humidity;BMP_temperature;BMP_pressure;BME280_temperature;BME280_humidity;BME280_pressure;Samples;Min_cycle;Max_cycle;Signal;HPM_P1;HPM_P2
2023/08/10 00:02:08;;;;;;;4.00;1.70;;;;;;;-145.33;100.00;60416.63;5008200;28;20456;-23
2023/08/10 00:04:33;;;;;;;2.05;1.40;;;;;;;-145.33;100.00;60416.63;5007520;28;20786;-22
2023/08/10 00:06:58;;;;;;;4.60;1.50;;;;;;;-145.33;100.00;60416.63;5007771;28;20133;-23
2023/08/10 00:09:27;;;;;;;2.17;1.23;;;;;;;-145.33;100.00;60416.63;5007619;28;20056;-23
2023/08/10 00:11:52;;;;;;;2.78;1.30;;;;;;;-145.33;100.00;60416.63;5007509;28;20022;-23
2023/08/10 00:14:17;;;;;;;4.95;1.70;;;;;;;-145.33;100.00;60416.63;5008111;28;20113;-22
2023/08/10 00:16:46;;;;;;;2.20;1.50;;;;;;;-145.33;100.00;60416.63;5007564;28;20104;-26
2023/08/10 00:19:13;;;;;;;3.38;1.52;;;;;;;-145.33;100.00;60416.63;5007908;28;20041;-23
2023/08/10 00:21:39;;;;;;;2.60;1.40;;;;;;;-145.33;100.00;60416.63;5007831;28;20022;-23
2023/08/10 00:24:04;;;;;;;3.10;1.73;;;;;;;-145.33;100.00;60416.63;5007748;28;20032;-23
2023/08/10 00:26:30;;;;;;;3.08;1.70;;;;;;;-145.33;100.00;60416.63;5007826;28;20274;-23
2023/08/10 00:28:56;;;;;;;4.53;1.77;;;;;;;-145.33;100.00;60416.63;5007540;28;20655;-23
2023/08/10 00:31:21;;;;;;;4.82;1.80;;;;;;;-145.33;100.00;60416.63;5007470;28;20116;-25
2023/08/10 00:33:46;;;;;;;2.47;1.67;;;;;;;-145.33;100.00;60416.63;5007406;28;20026;-23
2023/08/10 00:36:15;;;;;;;2.60;1.52;;;;;;;-145.33;100.00;60416.63;5007398;28;20413;-25
2023/08/10 00:38:41;;;;;;;3.80;1.63;;;;;;;-145.33;100.00;60416.63;5007368;28;20026;-23
2023/08/10 00:41:07;;;;;;;2.50;1.40;;;;;;;-145.33;100.00;60416.63;5007514;28;20022;-22
2023/08/10 00:43:33;;;;;;;1.73;1.30;;;;;;;-145.33;100.00;60416.63;5007248;28;20099;-22
2023/08/10 00:45:59;;;;;;;3.55;1.73;;;;;;;-145.33;100.00;60416.63;5007175;28;20026;-23
2023/08/10 00:48:25;;;;;;;3.65;1.40;;;;;;;-145.33;100.00;60416.63;5006977;28;20041;-22
2023/08/10 00:50:53;;;;;;;3.42;1.55;;;;;;;-145.33;100.00;60416.63;5007401;28;20038;-22
2023/08/10 00:53:20;;;;;;;3.42;1.55;;;;;;;-145.33;100.00;60416.63;5006984;28;20045;-22
2023/08/10 00:55:51;;;;;;;2.58;1.40;;;;;;;-145.33;100.00;60416.63;5006833;28;20040;-23
2023/08/10 00:58:20;;;;;;;2.65;1.55;;;;;;;-145.33;100.00;60416.63;5007300;28;20033;-22
2023/08/10 01:00:47;;;;;;;1.85;1.50;;;;;;;-145.33;100.00;60416.63;5006952;28;20034;-22
2023/08/10 01:03:12;;;;;;;4.65;1.98;;;;;;;-145.33;100.00;60416.63;5007224;28;20044;-24
2023/08/10 01:05:48;;;;;;;4.07;1.55;;;;;;;-145.33;100.00;60416.63;5006838;28;20073;-23
2023/08/10 01:08:28;;;;;;;2.50;1.60;;;;;;;-145.33;100.00;60416.63;5006614;28;20048;-28
2023/08/10 01:11:14;;;;;;;2.30;1.70;;;;;;;-145.33;100.00;60416.63;5006557;28;20030;-24
2023/08/10 01:14:25;;;;;;;2.22;1.55;;;;;;;-145.33;100.00;60416.63;5007010;28;20398;-23
2023/08/10 01:16:52;;;;;;;5.00;1.90;;;;;;;-145.33;100.00;60416.63;5007010;28;20041;-23
2023/08/10 01:19:38;;;;;;;4.07;1.90;;;;;;;-145.33;100.00;60416.63;5006754;28;20026;-26
2023/08/10 01:22:41;;;;;;;2.72;1.60;;;;;;;-145.33;100.00;60416.63;5006019;28;20036;-22
2023/08/10 01:25:08;;;;;;;2.33;1.52;;;;;;;-145.33;100.00;60416.63;5006618;28;20037;-23
2023/08/10 01:27:34;;;;;;;3.93;1.57;;;;;;;-145.33;100.00;60416.63;5006912;28;20041;-23
2023/08/10 01:30:04;;;;;;;4.03;1.80;;;;;;;-145.33;100.00;60416.63;5006717;28;20665;-23
2023/08/10 01:32:32;;;;;;;2.90;1.60;;;;;;;-145.33;100.00;60416.63;5006612;28;20032;-23
2023/08/10 01:34:59;;;;;;;1.95;1.50;;;;;;;-145.33;100.00;60416.63;5006873;28;20022;-23
2023/08/10 01:37:25;;;;;;;3.22;1.88;;;;;;;-145.33;100.00;60416.63;5006392;28;20180;-23
2023/08/10 01:39:52;;;;;;;5.28;2.20;;;;;;;-145.33;100.00;60416.63;5006957;28;20105;-24
2023/08/10 01:42:18;;;;;;;3.53;1.85;;;;;;;-145.33;100.00;60416.63;5006502;28;20038;-22
2023/08/10 01:44:44;;;;;;;4.53;1.77;;;;;;;-145.33;100.00;60416.63;5006598;28;20022;-23
2023/08/10 01:47:25;;;;;;;3.42;1.80;;;;;;;-145.33;100.00;60416.63;5006839;28;20421;-23
2023/08/10 01:49:55;;;;;;;3.28;1.90;;;;;;;-145.33;100.00;60416.63;5006335;28;20069;-23
2023/08/10 01:52:25;;;;;;;4.18;1.90;;;;;;;-145.33;100.00;60416.63;5005676;28;20409;-22
2023/08/10 01:54:51;;;;;;;4.03;1.80;;;;;;;-145.33;100.00;60416.63;5006377;28;20036;-23
2023/08/10 01:57:17;;;;;;;4.80;2.13;;;;;;;-145.33;100.00;60416.63;5006507;28;20058;-22
2023/08/10 01:59:43;;;;;;;4.13;2.00;;;;;;;-145.33;100.00;60416.63;5006876;28;20143;-24
2023/08/10 02:02:08;;;;;;;4.60;1.63;;;;;;;-145.33;100.00;60416.63;5006188;28;20484;-23
2023/08/10 02:04:34;;;;;;;4.97;1.90;;;;;;;-145.33;100.00;60416.63;5006407;28;20080;-23
2023/08/10 02:06:59;;;;;;;4.47;2.00;;;;;;;-145.33;100.00;60416.63;5006501;28;20069;-23
2023/08/10 02:09:27;;;;;;;5.05;1.80;;;;;;;-145.33;100.00;60416.63;5006104;28;20470;-23
2023/08/10 02:11:52;;;;;;;2.47;2.08;;;;;;;-145.33;100.00;60416.63;5006432;28;20026;-22
2023/08/10 02:14:18;;;;;;;4.13;1.95;;;;;;;-145.33;100.00;60416.63;5005764;28;20026;-23
2023/08/10 02:16:43;;;;;;;5.60;2.10;;;;;;;-145.33;100.00;60416.63;5006293;28;20030;-25
2023/08/10 02:19:09;;;;;;;5.38;2.38;;;;;;;-145.33;100.00;60416.63;5006710;28;20041;-23
2023/08/10 02:21:35;;;;;;;7.65;3.55;;;;;;;-145.33;100.00;60416.63;5006490;28;20394;-22
2023/08/10 02:24:00;;;;;;;4.65;2.35;;;;;;;-145.33;100.00;60416.63;5006368;28;20058;-22
2023/08/10 02:26:26;;;;;;;6.22;2.40;;;;;;;-145.33;100.00;60416.63;5005910;28;20473;-23
2023/08/10 02:28:51;;;;;;;5.60;2.58;;;;;;;-145.33;100.00;60416.63;5006462;28;20025;-23
2023/08/10 02:31:16;;;;;;;4.57;2.72;;;;;;;-145.33;100.00;60416.63;5005929;28;20030;-23
2023/08/10 02:33:42;;;;;;;6.05;2.88;;;;;;;-145.33;100.00;60416.63;5007565;28;20053;-23
2023/08/10 02:36:07;;;;;;;6.07;2.90;;;;;;;-145.33;100.00;60416.63;5009730;28;20021;-23
2023/08/10 02:38:33;;;;;;;5.38;2.67;;;;;;;-145.33;100.00;60416.63;5009452;28;20030;-23
2023/08/10 02:40:58;;;;;;;5.45;2.92;;;;;;;-145.33;100.00;60416.63;5009586;28;20022;-23
2023/08/10 02:43:24;;;;;;;5.70;3.00;;;;;;;-145.33;100.00;60416.63;5009752;28;20061;-23
2023/08/10 02:45:49;;;;;;;7.25;2.67;;;;;;;-145.33;100.00;60416.63;5009306;28;20052;-24
2023/08/10 02:48:15;;;;;;;6.90;3.13;;;;;;;-145.33;100.00;60416.63;5009882;28;20025;-23
2023/08/10 02:50:40;;;;;;;5.63;3.20;;;;;;;-145.33;100.00;60416.63;5009422;28;20500;-23
2023/08/10 02:53:05;;;;;;;6.03;3.15;;;;;;;-145.33;100.00;60416.63;5009061;28;20022;-24
2023/08/10 02:55:31;;;;;;;5.85;3.17;;;;;;;-145.33;100.00;60416.63;5009086;28;20026;-23
2023/08/10 02:57:56;;;;;;;7.72;3.42;;;;;;;-145.33;100.00;60416.63;5008986;28;20053;-23
2023/08/10 03:00:22;;;;;;;4.15;2.85;;;;;;;-145.33;100.00;60416.63;5009567;28;20022;-23
2023/08/10 03:02:50;;;;;;;5.40;2.80;;;;;;;-145.33;100.00;60416.63;5008996;28;20061;-22
2023/08/10 03:05:20;;;;;;;5.20;3.00;;;;;;;-145.33;100.00;60416.63;5008843;28;20054;-24
2023/08/10 03:07:46;;;;;;;7.25;3.00;;;;;;;-145.33;100.00;60416.63;5009007;28;20082;-23
2023/08/10 03:10:11;;;;;;;7.50;2.60;;;;;;;-145.33;100.00;60416.63;5009030;28;20025;-23
2023/08/10 03:12:39;;;;;;;7.55;2.95;;;;;;;-145.33;100.00;60416.63;5008907;28;20025;-23
2023/08/10 03:15:09;;;;;;;4.85;2.53;;;;;;;-145.33;100.00;60416.63;5009169;28;20030;-23
2023/08/10 03:17:34;;;;;;;5.00;2.53;;;;;;;-145.33;100.00;60416.63;5008770;28;20026;-22
2023/08/10 03:20:00;;;;;;;4.78;2.63;;;;;;;-145.33;100.00;60416.63;5008797;28;20485;-23
2023/08/10 03:22:27;;;;;;;4.55;2.50;;;;;;;-145.33;100.00;60416.63;5008400;28;20033;-24
2023/08/10 03:24:53;;;;;;;3.53;2.20;;;;;;;-145.33;100.00;60416.63;5008924;28;20022;-23
2023/08/10 03:27:18;;;;;;;3.30;2.50;;;;;;;-145.33;100.00;60416.63;5008712;28;20076;-23
2023/08/10 03:29:44;;;;;;;5.38;2.63;;;;;;;-145.33;100.00;60416.63;5008713;28;20026;-29
2023/08/10 03:32:09;;;;;;;5.78;3.10;;;;;;;-145.33;100.00;60416.63;5008511;28;20040;-23
2023/08/10 03:34:35;;;;;;;4.13;2.55;;;;;;;-145.33;100.00;60416.63;5008189;28;20030;-25
2023/08/10 03:37:03;;;;;;;3.67;2.58;;;;;;;-145.33;100.00;60416.63;5008916;28;20424;-23
2023/08/10 03:39:28;;;;;;;5.57;2.75;;;;;;;-145.33;100.00;60416.63;5008522;28;20026;-23
2023/08/10 03:41:54;;;;;;;4.22;2.40;;;;;;;-145.33;100.00;60416.63;5007957;28;20037;-23
2023/08/10 03:44:19;;;;;;;3.97;2.80;;;;;;;-145.33;100.00;60416.63;5008378;28;20024;-23
2023/08/10 03:46:45;;;;;;;3.90;2.70;;;;;;;-145.33;100.00;60416.63;5007497;28;20022;-23
2023/08/10 03:49:10;;;;;;;5.32;2.50;;;;;;;-145.33;100.00;60416.63;5008603;28;20060;-23
2023/08/10 03:51:36;;;;;;;6.32;2.63;;;;;;;-145.33;100.00;60416.63;5008074;28;20755;-22
2023/08/10 03:54:02;;;;;;;3.53;2.40;;;;;;;-145.33;100.00;60416.63;5008367;28;20018;-23
2023/08/10 03:56:27;;;;;;;5.18;2.50;;;;;;;-145.33;100.00;60416.63;5008361;28;20460;-23
2023/08/10 03:58:55;;;;;;;7.93;3.35;;;;;;;-145.33;100.00;60416.63;5007914;28;20029;-22
2023/08/10 04:01:22;;;;;;;5.13;2.85;;;;;;;-145.33;100.00;60416.63;5008097;28;20032;-23
2023/08/10 04:03:49;;;;;;;7.03;2.97;;;;;;;-145.33;100.00;60416.63;5007952;28;20038;-25
2023/08/10 04:06:14;;;;;;;6.28;3.00;;;;;;;-145.33;100.00;60416.63;5007766;28;20050;-26
2023/08/10 04:08:40;;;;;;;5.63;3.30;;;;;;;-145.33;100.00;60416.63;5008103;28;20034;-22
2023/08/10 04:11:05;;;;;;;5.07;3.10;;;;;;;-145.33;100.00;60416.63;5007808;28;20037;-23
2023/08/10 04:13:31;;;;;;;5.05;2.80;;;;;;;-145.33;100.00;60416.63;5007879;28;20089;-23
2023/08/10 04:15:59;;;;;;;6.57;2.95;;;;;;;-145.33;100.00;60416.63;5008143;28;20033;-22
2023/08/10 04:18:24;;;;;;;;;;;;;;;-145.33;100.00;60416.63;5008018;28;20030;-23
2023/08/10 04:20:49;;;;;;;8.68;3.67;;;;;;;-145.33;100.00;60416.63;5007391;28;19917;-23
2023/08/10 04:23:15;;;;;;;7.55;3.60;;;;;;;-145.33;100.00;60416.63;5007886;28;20026;-22
2023/08/10 04:25:40;;;;;;;7.22;2.95;;;;;;;-145.33;100.00;60416.63;5007813;28;20041;-23
2023/08/10 04:28:06;;;;;;;4.38;2.85;;;;;;;-145.33;100.00;60416.63;5007940;28;20030;-23
2023/08/10 04:30:32;;;;;;;4.97;2.95;;;;;;;-145.33;100.00;60416.63;5007034;28;20044;-23
2023/08/10 04:32:57;;;;;;;4.32;2.85;;;;;;;-145.33;100.00;60416.63;5007431;28;20733;-27
2023/08/10 04:35:26;;;;;;;6.15;3.28;;;;;;;-145.33;100.00;60416.63;5007504;28;20034;-22
2023/08/10 04:37:53;;;;;;;5.90;3.10;;;;;;;-145.33;100.00;60416.63;5007127;28;20030;-22
2023/08/10 04:40:19;;;;;;;4.93;3.30;;;;;;;-145.33;100.00;60416.63;5007262;28;20080;-24
2023/08/10 04:42:45;;;;;;;8.98;3.47;;;;;;;-145.33;100.00;60416.63;5007311;28;20127;-22
2023/08/10 04:45:10;;;;;;;5.30;3.13;;;;;;;-145.33;100.00;60416.63;5007685;28;20454;-22
2023/08/10 04:47:36;;;;;;;5.20;3.17;;;;;;;-145.33;100.00;60416.63;5007451;28;20762;-23
2023/08/10 04:50:03;;;;;;;5.32;2.70;;;;;;;-145.33;100.00;60416.63;5007025;28;20030;-23
2023/08/10 04:52:28;;;;;;;5.10;2.75;;;;;;;-145.33;100.00;60416.63;5007480;28;20033;-23
2023/08/10 04:54:54;;;;;;;4.38;2.70;;;;;;;-145.33;100.00;60416.63;5006872;28;20056;-23
2023/08/10 04:57:20;;;;;;;4.57;2.95;;;;;;;-145.33;100.00;60416.63;5007181;28;20084;-23
2023/08/10 04:59:46;;;;;;;6.50;3.33;;;;;;;-145.33;100.00;60416.63;5007446;28;20030;-22
2023/08/10 05:02:11;;;;;;;5.05;3.20;;;;;;;-145.33;100.00;60416.63;5007011;28;20029;-24
2023/08/10 05:04:40;;;;;;;5.35;3.17;;;;;;;-145.33;100.00;60416.63;5007317;28;20721;-22
2023/08/10 05:07:06;;;;;;;4.75;3.00;;;;;;;-145.33;100.00;60416.63;5005759;28;20056;-26
2023/08/10 05:09:31;;;;;;;6.25;3.03;;;;;;;-145.33;100.00;60416.63;5005946;28;20030;-23
2023/08/10 05:11:58;;;;;;;4.53;2.92;;;;;;;-145.33;100.00;60416.63;5005873;28;20030;-23
2023/08/10 05:14:23;;;;;;;5.53;3.58;;;;;;;-145.33;100.00;60416.63;5005656;28;20024;-27
2023/08/10 05:16:49;;;;;;;5.10;3.22;;;;;;;-145.33;100.00;60416.63;5005864;28;20029;-23
2023/08/10 05:19:14;;;;;;;6.53;3.92;;;;;;;-145.33;100.00;60416.63;5005866;28;20030;-24
2023/08/10 05:21:40;;;;;;;7.15;3.33;;;;;;;-145.33;100.00;60416.63;5006130;28;20026;-23
2023/08/10 05:24:06;;;;;;;5.05;2.60;;;;;;;-145.33;100.00;60416.63;5005728;28;20030;-24
2023/08/10 05:26:32;;;;;;;5.90;3.10;;;;;;;-145.33;100.00;60416.63;5005845;28;20428;-23
2023/08/10 05:28:57;;;;;;;8.95;3.30;;;;;;;-145.33;100.00;60416.63;5005859;28;20029;-23
2023/08/10 05:31:23;;;;;;;5.25;2.75;;;;;;;-145.33;100.00;60416.63;5005758;28;20165;-26
2023/08/10 05:33:51;;;;;;;5.45;3.17;;;;;;;-145.33;100.00;60416.63;5005825;28;20124;-23
2023/08/10 05:36:19;;;;;;;4.70;2.67;;;;;;;-145.33;100.00;60416.63;5006083;28;20033;-23
2023/08/10 05:38:44;;;;;;;;;;;;;;;-145.33;100.00;60416.63;5006144;28;20072;-24
2023/08/10 05:41:10;;;;;;;5.00;2.50;;;;;;;-145.33;100.00;60416.63;5006092;28;19956;-23
2023/08/10 05:43:35;;;;;;;5.07;3.05;;;;;;;-145.33;100.00;60416.63;5005605;28;20112;-24
2023/08/10 05:46:01;;;;;;;4.72;2.75;;;;;;;-145.33;100.00;60416.63;5005200;28;20034;-25
2023/08/10 05:48:27;;;;;;;5.55;2.60;;;;;;;-145.33;100.00;60416.63;5005585;28;20033;-24
2023/08/10 05:50:52;;;;;;;4.78;2.58;;;;;;;-145.33;100.00;60416.63;5005635;28;20025;-24
2023/08/10 05:53:18;;;;;;;4.47;2.10;;;;;;;-145.33;100.00;60416.63;5005769;28;20033;-26
2023/08/10 05:55:43;;;;;;;6.43;2.30;;;;;;;-145.33;100.00;60416.63;5005786;28;20036;-26
2023/08/10 05:58:08;;;;;;;3.53;2.00;;;;;;;-145.33;100.00;60416.63;5005180;28;20022;-24
2023/08/10 06:00:36;;;;;;;4.30;2.20;;;;;;;-145.33;100.00;60416.63;5005714;28;20022;-24
2023/08/10 06:03:03;;;;;;;3.85;2.10;;;;;;;-145.33;100.00;60416.63;5005254;28;20053;-23
2023/08/10 06:05:31;;;;;;;4.10;2.00;;;;;;;-145.33;100.00;60416.63;5005654;28;20042;-23
2023/08/10 06:07:57;;;;;;;5.13;2.10;;;;;;;-145.33;100.00;60416.63;4997634;28;20117;-23
2023/08/10 06:10:22;;;;;;;3.72;2.08;;;;;;;-145.33;100.00;60416.63;4989789;28;20101;-24
2023/08/10 06:12:48;;;;;;;3.85;1.95;;;;;;;-145.33;100.00;60416.63;4989748;28;20110;-27
2023/08/10 06:15:13;;;;;;;5.45;2.80;;;;;;;-145.33;100.00;60416.63;4988869;28;20399;-26
2023/08/10 06:17:38;;;;;;;4.03;2.17;;;;;;;-145.33;100.00;60416.63;4989661;28;20062;-25
2023/08/10 06:20:09;;;;;;;3.63;2.20;;;;;;;-145.33;100.00;60416.63;4989267;28;20114;-23
2023/08/10 06:22:39;;;;;;;2.67;2.00;;;;;;;-145.33;100.00;60416.63;4989485;28;20027;-23
2023/08/10 06:25:04;;;;;;;3.80;1.80;;;;;;;-145.33;100.00;60416.63;4989281;28;20041;-26
2023/08/10 06:27:31;;;;;;;17.38;2.22;;;;;;;-145.33;100.00;60416.63;4988814;28;20034;-23
2023/08/10 06:29:57;;;;;;;4.22;2.10;;;;;;;-145.33;100.00;60416.63;4989405;28;20104;-23
2023/08/10 06:32:22;;;;;;;4.25;2.25;;;;;;;-145.33;100.00;60416.63;4989569;28;20022;-23
2023/08/10 06:34:48;;;;;;;5.38;2.38;;;;;;;-145.33;100.00;60416.63;4989386;28;20088;-29
2023/08/10 06:37:15;;;;;;;3.63;1.80;;;;;;;-145.33;100.00;60416.63;4989403;28;20038;-24
2023/08/10 06:39:46;;;;;;;6.22;2.47;;;;;;;-145.33;100.00;60416.63;4989243;28;20030;-23
2023/08/10 06:42:11;;;;;;;3.92;2.00;;;;;;;-145.33;100.00;60416.63;4989321;28;20030;-23
2023/08/10 06:44:37;;;;;;;4.18;1.70;;;;;;;-145.33;100.00;60416.63;4989141;28;20782;-23
2023/08/10 06:47:03;;;;;;;4.38;1.73;;;;;;;-145.33;100.00;60416.63;4971207;28;20056;-24
2023/08/10 06:49:29;;;;;;;3.60;1.70;;;;;;;-145.33;100.00;60416.63;4989109;28;20031;-23
2023/08/10 06:51:54;;;;;;;5.90;2.08;;;;;;;-145.33;100.00;60416.63;4988665;28;20037;-23
2023/08/10 06:54:20;;;;;;;5.20;2.17;;;;;;;-145.33;100.00;60416.63;4988995;28;20038;-24
2023/08/10 06:56:46;;;;;;;3.00;1.90;;;;;;;-145.33;100.00;60416.63;4988419;28;20027;-24
2023/08/10 06:59:12;;;;;;;5.13;1.73;;;;;;;-145.33;100.00;60416.63;4988471;28;20037;-24
2023/08/10 07:01:38;;;;;;;1.75;1.38;;;;;;;-145.33;100.00;60416.63;4988221;28;20796;-26
2023/08/10 07:04:04;;;;;;;3.53;1.77;;;;;;;-145.33;100.00;60416.63;4987699;28;20498;-23
2023/08/10 07:06:30;;;;;;;5.45;1.88;;;;;;;-145.33;100.00;60416.63;4987868;28;20058;-24
2023/08/10 07:08:56;;;;;;;5.47;1.88;;;;;;;-145.33;100.00;60416.63;4988577;28;20052;-23
2023/08/10 07:11:21;;;;;;;3.92;2.08;;;;;;;-145.33;100.00;60416.63;4988387;28;20516;-24
2023/08/10 07:13:46;;;;;;;4.50;1.90;;;;;;;-145.33;100.00;60416.63;4988319;28;20057;-23
2023/08/10 07:16:13;;;;;;;4.35;1.63;;;;;;;-145.33;100.00;60416.63;4988178;28;20038;-23
2023/08/10 07:18:38;;;;;;;4.28;1.88;;;;;;;-145.33;100.00;60416.63;4987679;28;20037;-24
2023/08/10 07:21:04;;;;;;;3.83;1.80;;;;;;;-145.33;100.00;60416.63;4986878;28;20035;-23
2023/08/10 07:23:30;;;;;;;3.30;1.50;;;;;;;-145.33;100.00;60416.63;4987636;28;20644;-24
2023/08/10 07:25:56;;;;;;;4.28;1.50;;;;;;;-145.33;100.00;60416.63;4988011;28;20049;-23
2023/08/10 07:28:23;;;;;;;2.30;1.58;;;;;;;-145.33;100.00;60416.63;4987767;28;20112;-25
2023/08/10 07:30:55;;;;;;;3.40;1.30;;;;;;;-145.33;100.00;60416.63;4987465;28;20030;-27
2023/08/10 07:33:21;;;;;;;1.73;1.30;;;;;;;-145.33;100.00;60416.63;4988381;28;20027;-24
2023/08/10 07:35:46;;;;;;;2.42;1.30;;;;;;;-145.33;100.00;60416.63;4988363;28;20418;-24
2023/08/10 07:38:12;;;;;;;3.50;1.20;;;;;;;-145.33;100.00;60416.63;4988519;28;20390;-23
2023/08/10 07:40:38;;;;;;;5.10;1.40;;;;;;;-145.33;100.00;60416.63;4987674;28;20109;-24
2023/08/10 07:43:04;;;;;;;2.65;1.20;;;;;;;-145.33;100.00;60416.63;4988022;28;20405;-24
2023/08/10 07:45:29;;;;;;;2.83;1.30;;;;;;;-145.33;100.00;60416.63;4987899;28;20121;-24
2023/08/10 07:47:55;;;;;;;6.50;1.27;;;;;;;-145.33;100.00;60416.63;4987356;28;20034;-23
2023/08/10 07:50:20;;;;;;;3.25;1.58;;;;;;;-145.33;100.00;60416.63;4987969;28;20054;-23
2023/08/10 07:52:46;;;;;;;3.92;1.92;;;;;;;-145.33;100.00;60416.63;4987870;28;20069;-24
2023/08/10 07:55:15;;;;;;;6.05;1.50;;;;;;;-145.33;100.00;60416.63;4987606;28;20473;-24
2023/08/10 07:57:41;;;;;;;6.25;1.70;;;;;;;-145.33;100.00;60416.63;4987601;28;20031;-26
2023/08/10 08:00:07;;;;;;;4.88;1.90;;;;;;;-145.33;100.00;60416.63;4987399;28;20038;-25
2023/08/10 08:02:33;;;;;;;5.32;1.95;;;;;;;-145.33;100.00;60416.63;4987734;28;20026;-23
2023/08/10 08:05:01;;;;;;;5.25;1.85;;;;;;;-145.33;100.00;60416.63;4987794;28;20162;-24
2023/08/10 08:07:27;;;;;;;6.80;1.80;;;;;;;-145.33;100.00;60416.63;4987222;28;20441;-23
2023/08/10 08:09:52;;;;;;;3.40;1.90;;;;;;;-145.33;100.00;60416.63;4987592;28;20093;-23
2023/08/10 08:12:18;;;;;;;4.05;1.80;;;;;;;-145.33;100.00;60416.63;4987537;28;20030;-28
2023/08/10 08:14:44;;;;;;;8.50;3.72;;;;;;;-145.33;100.00;60416.63;4987486;28;20030;-23
2023/08/10 08:17:12;;;;;;;6.18;2.00;;;;;;;-145.33;100.00;60416.63;4986938;28;20038;-23
2023/08/10 08:19:37;;;;;;;5.03;2.20;;;;;;;-145.33;100.00;60416.63;4987226;28;20069;-24
2023/08/10 08:22:03;;;;;;;2.92;1.80;;;;;;;-145.33;100.00;60416.63;4987497;28;20048;-24
2023/08/10 08:24:31;;;;;;;4.07;1.70;;;;;;;-145.33;100.00;60416.63;4986815;28;20022;-26
2023/08/10 08:26:56;;;;;;;6.18;1.98;;;;;;;-145.33;100.00;60416.63;4986693;28;20018;-24
2023/08/10 08:29:22;;;;;;;2.97;1.75;;;;;;;-145.33;100.00;60416.63;4987148;28;20084;-24
2023/08/10 08:31:48;;;;;;;4.03;1.85;;;;;;;-145.33;100.00;60416.63;4986459;28;20037;-24
2023/08/10 08:34:15;;;;;;;6.70;2.15;;;;;;;-145.33;100.00;60416.63;4987199;28;20030;-23
2023/08/10 08:36:40;;;;;;;4.15;1.83;;;;;;;-145.33;100.00;60416.63;4986862;28;20109;-27
2023/08/10 08:39:06;;;;;;;4.60;1.73;;;;;;;-145.33;100.00;60416.63;4986543;28;20117;-23
2023/08/10 08:41:36;;;;;;;6.10;2.42;;;;;;;-145.33;100.00;60416.63;4986856;28;20177;-24
2023/08/10 08:44:03;;;;;;;3.33;1.55;;;;;;;-145.33;100.00;60416.63;4986911;28;20421;-23
2023/08/10 08:46:35;;;;;;;3.10;1.97;;;;;;;-145.33;100.00;60416.63;4986771;28;20033;-24
2023/08/10 08:49:01;;;;;;;6.20;1.90;;;;;;;-145.33;100.00;60416.63;4986854;28;20027;-24
2023/08/10 08:51:27;;;;;;;4.90;1.52;;;;;;;-145.33;100.00;60416.63;4986622;28;20033;-25
2023/08/10 08:53:53;;;;;;;3.83;1.38;;;;;;;-145.33;100.00;60416.63;4986633;28;20116;-24
2023/08/10 08:56:18;;;;;;;3.58;1.50;;;;;;;-145.33;100.00;60416.63;4986397;28;20096;-23
2023/08/10 08:58:44;;;;;;;3.38;1.70;;;;;;;-145.33;100.00;60416.63;4986543;28;20568;-23
2023/08/10 09:01:12;;;;;;;5.07;1.60;;;;;;;-145.33;100.00;60416.63;4986486;28;20027;-24
2023/08/10 09:03:38;;;;;;;5.43;1.42;;;;;;;-145.33;100.00;60416.63;4986233;28;20038;-24
2023/08/10 09:06:04;;;;;;;4.10;1.48;;;;;;;-145.33;100.00;60416.63;4986036;28;20058;-23
2023/08/10 09:08:30;;;;;;;2.72;1.40;;;;;;;-145.33;100.00;60416.63;4986107;28;20041;-24
2023/08/10 09:10:56;;;;;;;3.50;1.48;;;;;;;-145.33;100.00;60416.63;4986519;28;20027;-24
2023/08/10 09:13:23;;;;;;;3.30;1.27;;;;;;;-145.33;100.00;60416.63;4986715;28;20038;-28
2023/08/10 09:16:06;;;;;;;4.13;1.50;;;;;;;-145.33;100.00;60416.63;4986782;28;20026;-24
2023/08/10 09:18:33;;;;;;;5.75;1.60;;;;;;;-145.33;100.00;60416.63;4986395;28;20042;-23
2023/08/10 09:21:23;;;;;;;3.73;1.60;;;;;;;-145.33;100.00;60416.63;4986480;28;20048;-23
2023/08/10 09:23:52;;;;;;;3.97;1.52;;;;;;;-145.33;100.00;60416.63;4986623;28;20041;-25
2023/08/10 09:26:21;;;;;;;3.83;1.50;;;;;;;-145.33;100.00;60416.63;4986404;28;20037;-23
2023/08/10 09:28:48;;;;;;;5.95;1.58;;;;;;;-145.33;100.00;60416.63;4985915;28;20034;-23
2023/08/10 09:31:22;;;;;;;1.90;1.40;;;;;;;-145.33;100.00;60416.63;4985847;28;20509;-24
2023/08/10 09:33:53;;;;;;;7.43;2.47;;;;;;;-145.33;100.00;60416.63;4986042;28;20532;-23
2023/08/10 09:36:23;;;;;;;2.90;1.30;;;;;;;-145.33;100.00;60416.63;4986426;28;20096;-23
2023/08/10 09:38:49;;;;;;;7.63;2.13;;;;;;;-145.33;100.00;60416.63;4986130;28;20027;-24
2023/08/10 09:41:15;;;;;;;3.50;1.55;;;;;;;-145.33;100.00;60416.63;4986491;28;20041;-23
2023/08/10 09:43:43;;;;;;;3.65;1.60;;;;;;;-145.33;100.00;60416.63;4987421;28;20022;-24
2023/08/10 09:46:10;;;;;;;;;;;;;;;-145.33;100.00;60416.63;4990180;28;20030;-24
2023/08/10 09:48:41;;;;;;;4.40;1.95;;;;;;;-145.33;100.00;60416.63;4990048;28;19917;-25
2023/08/10 09:51:09;;;;;;;2.70;1.40;;;;;;;-145.33;100.00;60416.63;4989563;28;20030;-24
2023/08/10 09:53:35;;;;;;;;;;;;;;;-145.33;100.00;60416.63;4990241;28;20026;-24
2023/08/10 09:56:01;;;;;;;2.97;1.50;;;;;;;-145.33;100.00;60416.63;4990184;28;19917;-24
2023/08/10 09:58:28;;;;;;;4.57;1.90;;;;;;;-145.33;100.00;60416.63;4989697;28;20076;-26
2023/08/10 10:00:54;;;;;;;2.60;1.30;;;;;;;-145.33;100.00;60416.63;4990115;28;20084;-25
2023/08/10 10:03:20;;;;;;;5.40;1.58;;;;;;;-145.33;100.00;60416.63;4989875;28;20038;-24
2023/08/10 10:05:48;;;;;;;2.38;1.50;;;;;;;-145.33;100.00;60416.63;4989180;28;20398;-24
2023/08/10 10:08:14;;;;;;;;;;;;;;;-145.33;100.00;60416.63;4990214;28;20030;-28
2023/08/10 10:10:44;;;;;;;6.35;1.90;;;;;;;-145.33;100.00;60416.63;4989108;28;19917;-24
2023/08/10 10:13:15;;;;;;;2.35;1.55;;;;;;;-145.33;100.00;60416.63;4989796;28;20137;-23
2023/08/10 10:15:44;;;;;;;2.88;1.33;;;;;;;-145.33;100.00;60416.63;4989568;28;20022;-23
2023/08/10 10:18:11;;;;;;;2.72;1.45;;;;;;;-145.33;100.00;60416.63;4989405;28;20054;-28
2023/08/10 10:20:39;;;;;;;2.35;1.30;;;;;;;-145.33;100.00;60416.63;4989172;28;20109;-23
2023/08/10 10:23:13;;;;;;;3.63;1.90;;;;;;;-145.33;100.00;60416.63;4989106;28;20026;-23
2023/08/10 10:25:38;;;;;;;2.63;1.40;;;;;;;-145.33;100.00;60416.63;4989501;28;20026;-24
2023/08/10 10:28:13;;;;;;;6.72;1.90;;;;;;;-145.33;100.00;60416.63;4989289;28;20022;-23
2023/08/10 10:30:53;;;;;;;3.35;1.50;;;;;;;-145.33;100.00;60416.63;4989089;28;20041;-23
2023/08/10 10:33:18;;;;;;;2.65;1.48;;;;;;;-145.33;100.00;60416.63;4989481;28;20026;-24
2023/08/10 10:36:14;;;;;;;4.47;1.60;;;;;;;-145.33;100.00;60416.63;4989038;28;20409;-28
2023/08/10 10:38:41;;;;;;;2.45;1.40;;;;;;;-145.33;100.00;60416.63;4989300;28;20117;-23
2023/08/10 10:41:31;;;;;;;3.73;1.40;;;;;;;-145.33;100.00;60416.63;4988881;28;20038;-23
2023/08/10 10:44:02;;;;;;;4.65;1.58;;;;;;;-145.33;100.00;60416.63;4983233;28;20827;-24
2023/08/10 10:46:33;;;;;;;3.38;1.60;;;;;;;-145.33;100.00;60416.63;4988993;28;20502;-25
2023/08/10 10:49:00;;;;;;;4.38;1.67;;;;;;;-145.33;100.00;60416.63;4988674;28;20052;-25
2023/08/10 10:51:28;;;;;;;2.38;1.58;;;;;;;-145.33;100.00;60416.63;4988799;28;20026;-27
2023/08/10 10:53:54;;;;;;;2.45;1.65;;;;;;;-145.33;100.00;60416.63;4988894;28;20026;-27
2023/08/10 10:56:21;;;;;;;2.60;1.60;;;;;;;-145.33;100.00;60416.63;4988989;28;20149;-27
2023/08/10 10:58:49;;;;;;;3.65;1.65;;;;;;;-145.33;100.00;60416.63;4988413;28;20038;-24
2023/08/10 11:01:21;;;;;;;3.70;1.63;;;;;;;-145.33;100.00;60416.63;4988590;28;20019;-25
2023/08/10 11:03:56;;;;;;;5.22;2.88;;;;;;;-145.33;100.00;60416.63;4988896;28;20023;-26
2023/08/10 11:06:25;;;;;;;3.10;1.63;;;;;;;-145.33;100.00;60416.63;4988613;28;20053;-23
2023/08/10 11:08:51;;;;;;;3.13;1.40;;;;;;;-145.33;100.00;60416.63;4988876;28;20045;-26
2023/08/10 11:11:17;;;;;;;4.75;2.28;;;;;;;-145.33;100.00;60416.63;4988694;28;20027;-24